sensor_id;sensor_type;location;lat;lon;timestamp;temperature;humidity
78647;DHT22;67961;43.460;3.762;2023-03-23T00:01:19;13.50;82.50
78647;DHT22;67961;43.460;3.762;2023-03-23T00:03:46;13.50;82.50
78647;DHT22;67961;43.460;3.762;2023-03-23T00:06:13;13.50;82.60
78647;DHT22;67961;43.460;3.762;2023-03-23T00:08:46;13.50;82.60
78647;DHT22;67961;43.460;3.762;2023-03-23T00:11:13;13.50;82.40
78647;DHT22;67961;43.460;3.762;2023-03-23T00:13:41;13.50;82.30
78647;DHT22;67961;43.460;3.762;2023-03-23T00:16:07;13.50;82.30
78647;DHT22;67961;43.460;3.762;2023-03-23T00:18:46;13.50;82.30
78647;DHT22;67961;43.460;3.762;2023-03-23T00:21:12;13.50;82.30
78647;DHT22;67961;43.460;3.762;2023-03-23T00:23:38;13.50;82.30
78647;DHT22;67961;43.460;3.762;2023-03-23T00:26:05;13.50;82.40
78647;DHT22;67961;43.460;3.762;2023-03-23T00:28:30;13.50;82.30
78647;DHT22;67961;43.460;3.762;2023-03-23T00:31:03;13.50;82.40
78647;DHT22;67961;43.460;3.762;2023-03-23T00:33:33;13.50;82.50
78647;DHT22;67961;43.460;3.762;2023-03-23T00:36:04;13.50;82.60
78647;DHT22;67961;43.460;3.762;2023-03-23T00:38:30;13.50;82.80
78647;DHT22;67961;43.460;3.762;2023-03-23T00:40:57;13.50;82.70
78647;DHT22;67961;43.460;3.762;2023-03-23T00:43:23;13.50;82.80
78647;DHT22;67961;43.460;3.762;2023-03-23T00:45:55;13.50;82.80
78647;DHT22;67961;43.460;3.762;2023-03-23T00:48:24;13.50;82.90
78647;DHT22;67961;43.460;3.762;2023-03-23T00:50:51;13.50;82.90
78647;DHT22;67961;43.460;3.762;2023-03-23T00:53:17;13.50;83.00
78647;DHT22;67961;43.460;3.762;2023-03-23T00:55:44;13.50;82.90
78647;DHT22;67961;43.460;3.762;2023-03-23T00:58:13;13.50;82.80
78647;DHT22;67961;43.460;3.762;2023-03-23T01:00:40;13.50;82.80
78647;DHT22;67961;43.460;3.762;2023-03-23T01:03:09;13.50;82.80
78647;DHT22;67961;43.460;3.762;2023-03-23T01:05:44;13.50;82.80
78647;DHT22;67961;43.460;3.762;2023-03-23T01:08:13;13.50;82.80
78647;DHT22;67961;43.460;3.762;2023-03-23T01:10:39;13.50;82.70
78647;DHT22;67961;43.460;3.762;2023-03-23T01:13:06;13.60;82.50
78647;DHT22;67961;43.460;3.762;2023-03-23T01:15:32;13.60;82.40
78647;DHT22;67961;43.460;3.762;2023-03-23T01:17:58;13.60;82.20
78647;DHT22;67961;43.460;3.762;2023-03-23T01:20:25;13.60;82.20
78647;DHT22;67961;43.460;3.762;2023-03-23T01:22:59;13.60;82.40
78647;DHT22;67961;43.460;3.762;2023-03-23T01:25:30;13.50;82.30
78647;DHT22;67961;43.460;3.762;2023-03-23T01:27:57;13.50;82.20
78647;DHT22;67961;43.460;3.762;2023-03-23T01:30:24;13.50;82.10
78647;DHT22;67961;43.460;3.762;2023-03-23T01:32:50;13.50;81.90
78647;DHT22;67961;43.460;3.762;2023-03-23T01:35:16;13.60;81.80
78647;DHT22;67961;43.460;3.762;2023-03-23T01:37:42;13.60;81.70
78647;DHT22;67961;43.460;3.762;2023-03-23T01:40:09;13.60;81.80
78647;DHT22;67961;43.460;3.762;2023-03-23T01:42:36;13.60;81.70
78647;DHT22;67961;43.460;3.762;2023-03-23T01:45:25;13.60;81.70
78647;DHT22;67961;43.460;3.762;2023-03-23T01:50:28;13.50;81.70
78647;DHT22;67961;43.460;3.762;2023-03-23T01:52:57;13.50;81.70
78647;DHT22;67961;43.460;3.762;2023-03-23T01:55:26;13.50;81.80
78647;DHT22;67961;43.460;3.762;2023-03-23T01:57:54;13.50;81.90
78647;DHT22;67961;43.460;3.762;2023-03-23T02:00:20;13.50;81.80
78647;DHT22;67961;43.460;3.762;2023-03-23T02:02:49;13.50;81.90
78647;DHT22;67961;43.460;3.762;2023-03-23T02:05:40;13.50;81.90
78647;DHT22;67961;43.460;3.762;2023-03-23T02:08:07;13.50;81.90
78647;DHT22;67961;43.460;3.762;2023-03-23T02:10:34;13.50;81.90
78647;DHT22;67961;43.460;3.762;2023-03-23T02:13:03;13.50;81.90
78647;DHT22;67961;43.460;3.762;2023-03-23T02:15:45;13.50;81.90
78647;DHT22;67961;43.460;3.762;2023-03-23T02:34:45;13.50;81.90
78647;DHT22;67961;43.460;3.762;2023-03-23T02:37:26;13.50;82.00
78647;DHT22;67961;43.460;3.762;2023-03-23T02:40:00;13.50;82.00
78647;DHT22;67961;43.460;3.762;2023-03-23T02:42:33;13.50;81.80
78647;DHT22;67961;43.460;3.762;2023-03-23T02:45:04;13.50;81.90
78647;DHT22;67961;43.460;3.762;2023-03-23T02:47:31;13.50;81.90
78647;DHT22;67961;43.460;3.762;2023-03-23T02:49:59;13.50;81.90
78647;DHT22;67961;43.460;3.762;2023-03-23T02:52:30;13.40;81.90
78647;DHT22;67961;43.460;3.762;2023-03-23T02:54:57;13.40;81.90
78647;DHT22;67961;43.460;3.762;2023-03-23T02:57:25;13.40;81.90
78647;DHT22;67961;43.460;3.762;2023-03-23T02:59:53;13.40;81.90
78647;DHT22;67961;43.460;3.762;2023-03-23T03:02:23;13.40;81.90
78647;DHT22;67961;43.460;3.762;2023-03-23T03:18:52;13.40;81.80
78647;DHT22;67961;43.460;3.762;2023-03-23T03:21:16;13.30;81.70
78647;DHT22;67961;43.460;3.762;2023-03-23T03:23:46;13.30;81.70
78647;DHT22;67961;43.460;3.762;2023-03-23T03:26:15;13.30;81.80
78647;DHT22;67961;43.460;3.762;2023-03-23T03:28:44;13.40;81.70
78647;DHT22;67961;43.460;3.762;2023-03-23T03:31:13;13.30;81.70
78647;DHT22;67961;43.460;3.762;2023-03-23T03:33:40;13.40;81.70
78647;DHT22;67961;43.460;3.762;2023-03-23T03:36:07;13.40;81.80
78647;DHT22;67961;43.460;3.762;2023-03-23T03:38:44;13.30;81.80
78647;DHT22;67961;43.460;3.762;2023-03-23T03:41:10;13.30;81.90
78647;DHT22;67961;43.460;3.762;2023-03-23T03:43:36;13.30;81.90
78647;DHT22;67961;43.460;3.762;2023-03-23T03:46:03;13.30;81.80
78647;DHT22;67961;43.460;3.762;2023-03-23T03:48:28;13.30;81.90
78647;DHT22;67961;43.460;3.762;2023-03-23T03:50:54;13.30;81.80
78647;DHT22;67961;43.460;3.762;2023-03-23T03:53:25;13.30;81.90
78647;DHT22;67961;43.460;3.762;2023-03-23T03:55:51;13.40;81.90
78647;DHT22;67961;43.460;3.762;2023-03-23T03:58:21;13.40;82.00
78647;DHT22;67961;43.460;3.762;2023-03-23T04:00:47;13.30;81.70
78647;DHT22;67961;43.460;3.762;2023-03-23T04:03:16;13.20;81.50
78647;DHT22;67961;43.460;3.762;2023-03-23T04:05:43;13.10;81.50
78647;DHT22;67961;43.460;3.762;2023-03-23T04:08:10;13.00;81.90
78647;DHT22;67961;43.460;3.762;2023-03-23T04:10:36;12.90;81.90
78647;DHT22;67961;43.460;3.762;2023-03-23T04:13:02;12.90;81.90
78647;DHT22;67961;43.460;3.762;2023-03-23T04:15:30;12.90;81.90
78647;DHT22;67961;43.460;3.762;2023-03-23T04:17:56;12.90;81.90
78647;DHT22;67961;43.460;3.762;2023-03-23T04:20:22;12.90;81.80
78647;DHT22;67961;43.460;3.762;2023-03-23T04:22:49;12.80;81.80
78647;DHT22;67961;43.460;3.762;2023-03-23T04:25:19;12.80;81.80
78647;DHT22;67961;43.460;3.762;2023-03-23T04:27:49;12.80;81.90
78647;DHT22;67961;43.460;3.762;2023-03-23T04:30:19;12.80;81.90
78647;DHT22;67961;43.460;3.762;2023-03-23T04:32:45;12.80;82.00
78647;DHT22;67961;43.460;3.762;2023-03-23T04:35:13;12.80;82.10
78647;DHT22;67961;43.460;3.762;2023-03-23T04:37:42;12.80;82.00
78647;DHT22;67961;43.460;3.762;2023-03-23T04:40:09;12.70;81.90
78647;DHT22;67961;43.460;3.762;2023-03-23T04:42:39;12.70;81.90
78647;DHT22;67961;43.460;3.762;2023-03-23T04:45:13;12.70;81.70
78647;DHT22;67961;43.460;3.762;2023-03-23T04:47:41;12.60;81.90
78647;DHT22;67961;43.460;3.762;2023-03-23T04:50:15;12.70;81.90
78647;DHT22;67961;43.460;3.762;2023-03-23T04:52:42;12.70;81.80
78647;DHT22;67961;43.460;3.762;2023-03-23T04:55:14;12.70;81.60
78647;DHT22;67961;43.460;3.762;2023-03-23T04:57:43;12.80;81.50
78647;DHT22;67961;43.460;3.762;2023-03-23T05:00:10;12.80;81.60
78647;DHT22;67961;43.460;3.762;2023-03-23T05:02:40;12.70;81.60
78647;DHT22;67961;43.460;3.762;2023-03-23T05:05:10;12.70;81.70
78647;DHT22;67961;43.460;3.762;2023-03-23T05:07:40;12.70;81.80
78647;DHT22;67961;43.460;3.762;2023-03-23T05:10:07;12.70;81.80
78647;DHT22;67961;43.460;3.762;2023-03-23T05:12:33;12.70;81.80
78647;DHT22;67961;43.460;3.762;2023-03-23T05:14:59;12.80;81.70
78647;DHT22;67961;43.460;3.762;2023-03-23T05:17:25;12.80;81.70
78647;DHT22;67961;43.460;3.762;2023-03-23T05:19:52;12.70;81.60
78647;DHT22;67961;43.460;3.762;2023-03-23T05:22:18;12.70;81.80
78647;DHT22;67961;43.460;3.762;2023-03-23T05:24:47;12.60;82.00
78647;DHT22;67961;43.460;3.762;2023-03-23T05:27:13;12.50;82.20
78647;DHT22;67961;43.460;3.762;2023-03-23T05:29:40;12.50;82.30
78647;DHT22;67961;43.460;3.762;2023-03-23T05:32:07;12.50;82.30
78647;DHT22;67961;43.460;3.762;2023-03-23T05:34:36;12.50;82.30
78647;DHT22;67961;43.460;3.762;2023-03-23T05:37:03;12.50;82.30
78647;DHT22;67961;43.460;3.762;2023-03-23T05:39:30;12.50;82.30
78647;DHT22;67961;43.460;3.762;2023-03-23T05:41:56;12.50;82.30
78647;DHT22;67961;43.460;3.762;2023-03-23T05:44:22;12.50;82.20
78647;DHT22;67961;43.460;3.762;2023-03-23T05:46:48;12.50;82.30
78647;DHT22;67961;43.460;3.762;2023-03-23T05:49:15;12.50;82.40
78647;DHT22;67961;43.460;3.762;2023-03-23T05:51:46;12.50;82.50
78647;DHT22;67961;43.460;3.762;2023-03-23T05:54:13;12.50;82.60
78647;DHT22;67961;43.460;3.762;2023-03-23T05:56:40;12.50;82.80
78647;DHT22;67961;43.460;3.762;2023-03-23T05:59:06;12.50;82.80
78647;DHT22;67961;43.460;3.762;2023-03-23T06:01:32;12.50;82.80
78647;DHT22;67961;43.460;3.762;2023-03-23T06:03:58;12.40;82.80
78647;DHT22;67961;43.460;3.762;2023-03-23T06:06:29;12.50;82.80
78647;DHT22;67961;43.460;3.762;2023-03-23T06:08:56;12.50;82.70
78647;DHT22;67961;43.460;3.762;2023-03-23T06:11:23;12.50;82.70
78647;DHT22;67961;43.460;3.762;2023-03-23T06:13:49;12.40;82.70
78647;DHT22;67961;43.460;3.762;2023-03-23T06:16:15;12.40;82.80
78647;DHT22;67961;43.460;3.762;2023-03-23T06:18:41;12.40;82.70
78647;DHT22;67961;43.460;3.762;2023-03-23T06:21:08;12.40;82.80
78647;DHT22;67961;43.460;3.762;2023-03-23T06:23:35;12.40;82.80
78647;DHT22;67961;43.460;3.762;2023-03-23T06:26:03;12.50;82.60
78647;DHT22;67961;43.460;3.762;2023-03-23T06:28:30;12.50;82.70
78647;DHT22;67961;43.460;3.762;2023-03-23T06:31:03;12.50;82.60
78647;DHT22;67961;43.460;3.762;2023-03-23T06:33:35;12.50;82.50
78647;DHT22;67961;43.460;3.762;2023-03-23T06:36:01;12.50;82.60
78647;DHT22;67961;43.460;3.762;2023-03-23T06:38:27;12.60;82.50
78647;DHT22;67961;43.460;3.762;2023-03-23T06:40:54;12.60;82.40
78647;DHT22;67961;43.460;3.762;2023-03-23T06:43:21;12.60;82.30
78647;DHT22;67961;43.460;3.762;2023-03-23T06:45:47;12.60;82.40
78647;DHT22;67961;43.460;3.762;2023-03-23T06:48:13;12.60;82.40
78647;DHT22;67961;43.460;3.762;2023-03-23T06:50:41;12.70;82.30
78647;DHT22;67961;43.460;3.762;2023-03-23T06:53:07;12.60;82.30
78647;DHT22;67961;43.460;3.762;2023-03-23T06:55:33;12.60;82.30
78647;DHT22;67961;43.460;3.762;2023-03-23T06:57:59;12.60;82.40
78647;DHT22;67961;43.460;3.762;2023-03-23T07:00:27;12.70;82.40
78647;DHT22;67961;43.460;3.762;2023-03-23T07:02:52;12.70;82.40
78647;DHT22;67961;43.460;3.762;2023-03-23T07:05:18;12.70;82.30
78647;DHT22;67961;43.460;3.762;2023-03-23T07:07:45;12.70;82.10
78647;DHT22;67961;43.460;3.762;2023-03-23T07:10:11;12.70;82.10
78647;DHT22;67961;43.460;3.762;2023-03-23T07:12:37;12.80;82.10
78647;DHT22;67961;43.460;3.762;2023-03-23T07:15:04;12.80;81.90
78647;DHT22;67961;43.460;3.762;2023-03-23T07:17:30;12.70;81.80
78647;DHT22;67961;43.460;3.762;2023-03-23T07:19:57;12.70;81.70
78647;DHT22;67961;43.460;3.762;2023-03-23T07:22:22;12.70;81.90
78647;DHT22;67961;43.460;3.762;2023-03-23T07:24:48;12.80;81.80
78647;DHT22;67961;43.460;3.762;2023-03-23T07:27:14;12.90;81.80
78647;DHT22;67961;43.460;3.762;2023-03-23T07:29:40;12.90;81.50
78647;DHT22;67961;43.460;3.762;2023-03-23T07:32:10;12.90;81.50
78647;DHT22;67961;43.460;3.762;2023-03-23T07:34:36;12.90;81.50
78647;DHT22;67961;43.460;3.762;2023-03-23T07:37:02;12.90;81.50
78647;DHT22;67961;43.460;3.762;2023-03-23T07:39:28;12.90;81.50
78647;DHT22;67961;43.460;3.762;2023-03-23T07:41:54;12.90;81.20
78647;DHT22;67961;43.460;3.762;2023-03-23T07:44:20;12.90;81.20
78647;DHT22;67961;43.460;3.762;2023-03-23T07:46:46;13.00;81.20
78647;DHT22;67961;43.460;3.762;2023-03-23T07:49:12;13.00;81.10
78647;DHT22;67961;43.460;3.762;2023-03-23T07:51:38;13.00;80.80
78647;DHT22;67961;43.460;3.762;2023-03-23T07:54:04;13.00;80.70
78647;DHT22;67961;43.460;3.762;2023-03-23T07:56:33;13.10;80.90
78647;DHT22;67961;43.460;3.762;2023-03-23T07:58:59;13.10;80.70
78647;DHT22;67961;43.460;3.762;2023-03-23T08:01:24;13.00;80.50
78647;DHT22;67961;43.460;3.762;2023-03-23T08:03:51;13.10;80.70
78647;DHT22;67961;43.460;3.762;2023-03-23T08:06:17;13.10;80.60
78647;DHT22;67961;43.460;3.762;2023-03-23T08:08:43;13.10;80.50
78647;DHT22;67961;43.460;3.762;2023-03-23T08:11:09;13.10;80.50
78647;DHT22;67961;43.460;3.762;2023-03-23T08:13:34;13.10;80.40
78647;DHT22;67961;43.460;3.762;2023-03-23T08:16:01;13.10;80.30
78647;DHT22;67961;43.460;3.762;2023-03-23T08:18:30;13.10;80.40
78647;DHT22;67961;43.460;3.762;2023-03-23T08:20:57;13.10;80.40
78647;DHT22;67961;43.460;3.762;2023-03-23T08:23:23;13.20;80.40
78647;DHT22;67961;43.460;3.762;2023-03-23T08:25:49;13.20;80.30
78647;DHT22;67961;43.460;3.762;2023-03-23T08:28:14;13.20;80.30
78647;DHT22;67961;43.460;3.762;2023-03-23T08:30:40;13.20;80.10
78647;DHT22;67961;43.460;3.762;2023-03-23T08:33:07;13.20;80.30
78647;DHT22;67961;43.460;3.762;2023-03-23T08:35:33;13.30;80.40
78647;DHT22;67961;43.460;3.762;2023-03-23T08:37:58;13.30;80.30
78647;DHT22;67961;43.460;3.762;2023-03-23T08:40:25;13.30;80.10
78647;DHT22;67961;43.460;3.762;2023-03-23T08:42:51;13.30;80.10
78647;DHT22;67961;43.460;3.762;2023-03-23T08:45:20;13.40;79.90
78647;DHT22;67961;43.460;3.762;2023-03-23T08:47:47;13.40;79.70
78647;DHT22;67961;43.460;3.762;2023-03-23T08:50:21;13.30;79.80
78647;DHT22;67961;43.460;3.762;2023-03-23T08:52:48;13.30;80.00
78647;DHT22;67961;43.460;3.762;2023-03-23T08:55:15;13.40;79.80
78647;DHT22;67961;43.460;3.762;2023-03-23T08:57:43;13.40;80.10
78647;DHT22;67961;43.460;3.762;2023-03-23T09:00:12;13.50;80.00
78647;DHT22;67961;43.460;3.762;2023-03-23T09:02:47;13.60;79.70
78647;DHT22;67961;43.460;3.762;2023-03-23T09:05:18;13.60;79.60
78647;DHT22;67961;43.460;3.762;2023-03-23T09:07:46;13.70;79.30
78647;DHT22;67961;43.460;3.762;2023-03-23T09:10:13;13.70;79.30
78647;DHT22;67961;43.460;3.762;2023-03-23T09:12:40;13.70;79.10
78647;DHT22;67961;43.460;3.762;2023-03-23T09:15:08;13.70;79.00
78647;DHT22;67961;43.460;3.762;2023-03-23T09:17:48;13.70;79.30
78647;DHT22;67961;43.460;3.762;2023-03-23T09:20:17;13.70;79.30
78647;DHT22;67961;43.460;3.762;2023-03-23T09:22:55;13.70;79.30
78647;DHT22;67961;43.460;3.762;2023-03-23T09:25:24;13.70;79.40
78647;DHT22;67961;43.460;3.762;2023-03-23T09:27:58;13.80;79.00
78647;DHT22;67961;43.460;3.762;2023-03-23T09:30:27;13.80;79.20
78647;DHT22;67961;43.460;3.762;2023-03-23T09:32:54;13.70;79.00
78647;DHT22;67961;43.460;3.762;2023-03-23T09:35:20;13.70;79.20
78647;DHT22;67961;43.460;3.762;2023-03-23T09:37:51;13.70;78.90
78647;DHT22;67961;43.460;3.762;2023-03-23T09:40:23;13.70;78.90
78647;DHT22;67961;43.460;3.762;2023-03-23T09:48:29;13.90;78.70
78647;DHT22;67961;43.460;3.762;2023-03-23T09:54:03;13.70;78.80
78647;DHT22;67961;43.460;3.762;2023-03-23T09:56:32;13.60;78.90
78647;DHT22;67961;43.460;3.762;2023-03-23T09:59:04;13.60;79.20
78647;DHT22;67961;43.460;3.762;2023-03-23T10:01:32;13.70;79.00
78647;DHT22;67961;43.460;3.762;2023-03-23T10:04:20;13.90;79.00
78647;DHT22;67961;43.460;3.762;2023-03-23T10:06:47;13.90;78.70
78647;DHT22;67961;43.460;3.762;2023-03-23T10:09:16;14.00;78.60
78647;DHT22;67961;43.460;3.762;2023-03-23T10:12:38;14.10;78.50
78647;DHT22;67961;43.460;3.762;2023-03-23T10:20:01;14.10;78.20
78647;DHT22;67961;43.460;3.762;2023-03-23T10:22:38;14.10;78.70
78647;DHT22;67961;43.460;3.762;2023-03-23T10:28:58;14.30;78.30
78647;DHT22;67961;43.460;3.762;2023-03-23T10:30:55;14.30;78.50
78647;DHT22;67961;43.460;3.762;2023-03-23T10:33:38;14.40;78.10
78647;DHT22;67961;43.460;3.762;2023-03-23T10:36:08;14.50;78.00
78647;DHT22;67961;43.460;3.762;2023-03-23T10:38:47;14.50;78.10
78647;DHT22;67961;43.460;3.762;2023-03-23T10:41:16;14.50;78.60
78647;DHT22;67961;43.460;3.762;2023-03-23T10:43:44;14.60;78.10
78647;DHT22;67961;43.460;3.762;2023-03-23T10:48:41;14.70;78.30
78647;DHT22;67961;43.460;3.762;2023-03-23T10:51:11;14.70;77.90
78647;DHT22;67961;43.460;3.762;2023-03-23T10:53:49;14.80;78.00
78647;DHT22;67961;43.460;3.762;2023-03-23T10:56:26;15.00;77.10
78647;DHT22;67961;43.460;3.762;2023-03-23T10:58:53;15.00;77.10
78647;DHT22;67961;43.460;3.762;2023-03-23T11:01:27;15.20;77.00
78647;DHT22;67961;43.460;3.762;2023-03-23T11:03:54;15.40;76.60
78647;DHT22;67961;43.460;3.762;2023-03-23T11:06:24;15.50;76.30
78647;DHT22;67961;43.460;3.762;2023-03-23T11:09:09;15.50;76.60
78647;DHT22;67961;43.460;3.762;2023-03-23T11:11:40;15.60;76.10
78647;DHT22;67961;43.460;3.762;2023-03-23T11:14:28;15.50;76.00
78647;DHT22;67961;43.460;3.762;2023-03-23T11:16:59;15.40;76.80
78647;DHT22;67961;43.460;3.762;2023-03-23T11:19:35;15.40;76.70
78647;DHT22;67961;43.460;3.762;2023-03-23T11:24:44;15.50;76.50
78647;DHT22;67961;43.460;3.762;2023-03-23T11:27:11;15.60;76.40
78647;DHT22;67961;43.460;3.762;2023-03-23T11:30:07;15.60;76.10
78647;DHT22;67961;43.460;3.762;2023-03-23T11:32:31;15.40;76.50
78647;DHT22;67961;43.460;3.762;2023-03-23T11:35:00;15.30;76.90
78647;DHT22;67961;43.460;3.762;2023-03-23T11:37:35;15.20;77.20
78647;DHT22;67961;43.460;3.762;2023-03-23T11:42:46;15.00;77.70
78647;DHT22;67961;43.460;3.762;2023-03-23T11:50:54;15.40;76.70
78647;DHT22;67961;43.460;3.762;2023-03-23T11:55:56;15.20;77.00
78647;DHT22;67961;43.460;3.762;2023-03-23T11:58:23;15.20;77.30
78647;DHT22;67961;43.460;3.762;2023-03-23T12:01:00;15.20;77.40
78647;DHT22;67961;43.460;3.762;2023-03-23T12:12:22;15.30;77.20
78647;DHT22;67961;43.460;3.762;2023-03-23T12:17:48;15.20;77.50
78647;DHT22;67961;43.460;3.762;2023-03-23T12:31:15;15.30;77.10
78647;DHT22;67961;43.460;3.762;2023-03-23T12:36:17;15.30;77.50
78647;DHT22;67961;43.460;3.762;2023-03-23T12:44:53;15.30;76.90
78647;DHT22;67961;43.460;3.762;2023-03-23T12:47:41;15.30;77.20
78647;DHT22;67961;43.460;3.762;2023-03-23T12:50:40;15.30;76.80
78647;DHT22;67961;43.460;3.762;2023-03-23T12:53:15;15.30;76.90
78647;DHT22;67961;43.460;3.762;2023-03-23T12:55:47;15.50;76.50
78647;DHT22;67961;43.460;3.762;2023-03-23T12:58:21;15.60;76.50
78647;DHT22;67961;43.460;3.762;2023-03-23T13:09:06;15.70;75.50
78647;DHT22;67961;43.460;3.762;2023-03-23T13:11:38;15.70;75.20
78647;DHT22;67961;43.460;3.762;2023-03-23T13:20:14;15.50;76.40
78647;DHT22;67961;43.460;3.762;2023-03-23T13:22:56;15.50;75.60
78647;DHT22;67961;43.460;3.762;2023-03-23T13:28:18;15.60;74.70
78647;DHT22;67961;43.460;3.762;2023-03-23T13:31:13;15.70;75.00
78647;DHT22;67961;43.460;3.762;2023-03-23T13:33:43;15.50;75.10
78647;DHT22;67961;43.460;3.762;2023-03-23T13:36:13;15.60;74.80
78647;DHT22;67961;43.460;3.762;2023-03-23T13:38:45;15.50;75.40
78647;DHT22;67961;43.460;3.762;2023-03-23T13:41:14;15.60;75.50
78647;DHT22;67961;43.460;3.762;2023-03-23T13:43:42;15.30;76.60
78647;DHT22;67961;43.460;3.762;2023-03-23T13:46:29;15.20;77.20
78647;DHT22;67961;43.460;3.762;2023-03-23T13:49:18;15.10;77.90
78647;DHT22;67961;43.460;3.762;2023-03-23T13:57:00;15.20;77.00
78647;DHT22;67961;43.460;3.762;2023-03-23T14:01:54;15.00;76.50
78647;DHT22;67961;43.460;3.762;2023-03-23T14:04:21;15.00;75.80
78647;DHT22;67961;43.460;3.762;2023-03-23T14:06:49;15.00;75.60
78647;DHT22;67961;43.460;3.762;2023-03-23T14:12:05;15.20;75.70
78647;DHT22;67961;43.460;3.762;2023-03-23T14:14:47;15.10;76.50
78647;DHT22;67961;43.460;3.762;2023-03-23T14:17:21;15.20;76.80
78647;DHT22;67961;43.460;3.762;2023-03-23T14:19:53;15.10;77.00
78647;DHT22;67961;43.460;3.762;2023-03-23T14:22:32;15.00;77.10
78647;DHT22;67961;43.460;3.762;2023-03-23T14:27:30;15.20;77.00
78647;DHT22;67961;43.460;3.762;2023-03-23T14:30:06;15.30;76.90
78647;DHT22;67961;43.460;3.762;2023-03-23T14:32:33;15.00;76.60
78647;DHT22;67961;43.460;3.762;2023-03-23T14:35:07;15.00;76.70
78647;DHT22;67961;43.460;3.762;2023-03-23T14:37:34;14.90;77.40
78647;DHT22;67961;43.460;3.762;2023-03-23T14:40:01;14.80;77.90
78647;DHT22;67961;43.460;3.762;2023-03-23T14:42:33;14.80;78.40
78647;DHT22;67961;43.460;3.762;2023-03-23T14:45:01;14.80;78.40
78647;DHT22;67961;43.460;3.762;2023-03-23T14:47:32;14.80;78.50
78647;DHT22;67961;43.460;3.762;2023-03-23T14:50:02;14.90;78.30
78647;DHT22;67961;43.460;3.762;2023-03-23T14:52:34;15.00;78.10
78647;DHT22;67961;43.460;3.762;2023-03-23T14:55:12;14.80;78.00
78647;DHT22;67961;43.460;3.762;2023-03-23T14:57:41;14.80;78.30
78647;DHT22;67961;43.460;3.762;2023-03-23T15:00:16;14.70;78.60
78647;DHT22;67961;43.460;3.762;2023-03-23T15:02:46;14.60;78.90
78647;DHT22;67961;43.460;3.762;2023-03-23T15:05:26;14.80;78.90
78647;DHT22;67961;43.460;3.762;2023-03-23T15:07:56;14.90;78.40
78647;DHT22;67961;43.460;3.762;2023-03-23T15:10:24;14.80;78.20
78647;DHT22;67961;43.460;3.762;2023-03-23T15:12:51;14.70;78.50
78647;DHT22;67961;43.460;3.762;2023-03-23T15:17:51;14.60;78.60
78647;DHT22;67961;43.460;3.762;2023-03-23T15:22:53;14.70;78.40
78647;DHT22;67961;43.460;3.762;2023-03-23T15:25:30;14.60;78.40
78647;DHT22;67961;43.460;3.762;2023-03-23T15:28:18;14.60;78.20
78647;DHT22;67961;43.460;3.762;2023-03-23T15:30:55;14.70;78.20
78647;DHT22;67961;43.460;3.762;2023-03-23T15:33:23;14.70;77.90
78647;DHT22;67961;43.460;3.762;2023-03-23T15:35:54;14.60;77.80
78647;DHT22;67961;43.460;3.762;2023-03-23T15:38:23;14.70;77.90
78647;DHT22;67961;43.460;3.762;2023-03-23T15:40:54;14.60;77.80
78647;DHT22;67961;43.460;3.762;2023-03-23T15:43:27;14.60;78.00
78647;DHT22;67961;43.460;3.762;2023-03-23T15:48:22;14.70;78.20
78647;DHT22;67961;43.460;3.762;2023-03-23T15:50:49;14.60;78.40
78647;DHT22;67961;43.460;3.762;2023-03-23T15:53:36;14.60;78.40
78647;DHT22;67961;43.460;3.762;2023-03-23T15:56:04;14.50;78.80
78647;DHT22;67961;43.460;3.762;2023-03-23T15:58:31;14.50;79.20
78647;DHT22;67961;43.460;3.762;2023-03-23T16:00:58;14.50;79.60
78647;DHT22;67961;43.460;3.762;2023-03-23T16:03:29;14.40;79.90
78647;DHT22;67961;43.460;3.762;2023-03-23T16:05:57;14.40;79.80
78647;DHT22;67961;43.460;3.762;2023-03-23T16:08:25;14.40;80.00
78647;DHT22;67961;43.460;3.762;2023-03-23T16:10:50;14.40;80.10
78647;DHT22;67961;43.460;3.762;2023-03-23T16:13:16;14.40;80.20
78647;DHT22;67961;43.460;3.762;2023-03-23T16:15:43;14.40;80.30
78647;DHT22;67961;43.460;3.762;2023-03-23T16:18:20;14.40;80.40
78647;DHT22;67961;43.460;3.762;2023-03-23T16:20:48;14.50;80.50
78647;DHT22;67961;43.460;3.762;2023-03-23T16:23:14;14.60;80.30
78647;DHT22;67961;43.460;3.762;2023-03-23T16:25:40;14.70;80.30
78647;DHT22;67961;43.460;3.762;2023-03-23T16:28:12;14.70;80.20
78647;DHT22;67961;43.460;3.762;2023-03-23T16:30:38;14.70;80.00
78647;DHT22;67961;43.460;3.762;2023-03-23T16:33:05;14.70;80.00
78647;DHT22;67961;43.460;3.762;2023-03-23T16:35:31;14.70;80.00
78647;DHT22;67961;43.460;3.762;2023-03-23T16:37:57;14.60;80.30
78647;DHT22;67961;43.460;3.762;2023-03-23T16:40:23;14.60;80.50
78647;DHT22;67961;43.460;3.762;2023-03-23T16:42:49;14.60;80.30
78647;DHT22;67961;43.460;3.762;2023-03-23T16:45:16;14.60;80.40
78647;DHT22;67961;43.460;3.762;2023-03-23T16:47:43;14.60;80.40
78647;DHT22;67961;43.460;3.762;2023-03-23T16:50:11;14.60;80.40
78647;DHT22;67961;43.460;3.762;2023-03-23T16:52:42;14.70;80.40
78647;DHT22;67961;43.460;3.762;2023-03-23T16:55:09;14.60;80.30
78647;DHT22;67961;43.460;3.762;2023-03-23T16:57:36;14.60;80.40
78647;DHT22;67961;43.460;3.762;2023-03-23T17:00:16;14.60;80.40
78647;DHT22;67961;43.460;3.762;2023-03-23T17:02:48;14.60;80.50
78647;DHT22;67961;43.460;3.762;2023-03-23T17:05:17;14.60;80.50
78647;DHT22;67961;43.460;3.762;2023-03-23T17:07:44;14.60;80.50
78647;DHT22;67961;43.460;3.762;2023-03-23T17:10:10;14.50;80.70
78647;DHT22;67961;43.460;3.762;2023-03-23T17:12:36;14.50;80.80
78647;DHT22;67961;43.460;3.762;2023-03-23T17:15:02;14.50;81.10
78647;DHT22;67961;43.460;3.762;2023-03-23T17:17:28;14.50;81.00
78647;DHT22;67961;43.460;3.762;2023-03-23T17:19:53;14.50;81.00
78647;DHT22;67961;43.460;3.762;2023-03-23T17:22:19;14.50;80.90
78647;DHT22;67961;43.460;3.762;2023-03-23T17:24:45;14.50;81.10
78647;DHT22;67961;43.460;3.762;2023-03-23T17:27:16;14.40;81.20
78647;DHT22;67961;43.460;3.762;2023-03-23T17:29:42;14.50;81.40
78647;DHT22;67961;43.460;3.762;2023-03-23T17:32:08;14.40;81.60
78647;DHT22;67961;43.460;3.762;2023-03-23T17:34:33;14.40;81.90
78647;DHT22;67961;43.460;3.762;2023-03-23T17:36:59;14.40;81.60
78647;DHT22;67961;43.460;3.762;2023-03-23T17:39:25;14.40;81.80
78647;DHT22;67961;43.460;3.762;2023-03-23T17:41:50;14.40;81.90
78647;DHT22;67961;43.460;3.762;2023-03-23T17:44:16;14.30;81.90
78647;DHT22;67961;43.460;3.762;2023-03-23T17:46:42;14.30;81.90
78647;DHT22;67961;43.460;3.762;2023-03-23T17:49:07;14.30;81.80
78647;DHT22;67961;43.460;3.762;2023-03-23T17:51:33;14.30;81.50
78647;DHT22;67961;43.460;3.762;2023-03-23T17:53:59;14.30;81.50
78647;DHT22;67961;43.460;3.762;2023-03-23T17:56:24;14.30;81.50
78647;DHT22;67961;43.460;3.762;2023-03-23T17:58:50;14.30;81.50